createdAt,value
2022-10-22T00:00:04.534Z,2.55
2022-10-22T00:02:32.286Z,2.63
2022-10-22T00:04:59.873Z,2.40
2022-10-22T00:07:28.102Z,3.50
2022-10-22T00:09:55.679Z,1.98
2022-10-22T00:12:23.565Z,2.80
2022-10-22T00:14:52.530Z,2.50
2022-10-22T00:17:20.387Z,3.10
2022-10-22T00:19:47.993Z,2.97
2022-10-22T00:22:15.600Z,2.53
2022-10-22T00:24:46.363Z,2.60
2022-10-22T00:27:14.698Z,2.58
2022-10-22T00:29:42.360Z,2.80
2022-10-22T00:32:11.316Z,2.80
2022-10-22T00:34:38.930Z,2.42
2022-10-22T00:37:06.504Z,2.47
2022-10-22T00:39:34.186Z,2.95
2022-10-22T00:42:01.818Z,2.42
2022-10-22T00:44:47.654Z,2.10
2022-10-22T00:47:17.153Z,2.13
2022-10-22T00:49:45.525Z,2.53
2022-10-22T00:52:13.741Z,2.63
2022-10-22T00:54:42.313Z,2.30
2022-10-22T00:57:09.946Z,2.15
2022-10-22T00:59:37.749Z,2.38
2022-10-22T01:02:05.611Z,2.00
2022-10-22T01:04:34.752Z,2.25
2022-10-22T01:07:02.637Z,2.38
2022-10-22T01:09:34.643Z,2.42
2022-10-22T01:12:04.304Z,2.22
2022-10-22T01:14:37.159Z,2.38
2022-10-22T01:17:07.253Z,2.08
2022-10-22T01:19:47.109Z,2.17
2022-10-22T01:22:20.134Z,2.75
2022-10-22T01:24:54.470Z,1.85
2022-10-22T01:27:40.982Z,2.10
2022-10-22T01:30:11.486Z,2.10
2022-10-22T01:32:43.749Z,2.22
2022-10-22T01:35:13.512Z,2.08
2022-10-22T01:37:42.961Z,3.00
2022-10-22T01:40:11.757Z,2.70
2022-10-22T01:42:39.407Z,2.33
2022-10-22T01:45:14.019Z,1.65
2022-10-22T01:47:45.507Z,2.53
2022-10-22T01:50:29.969Z,4.28
2022-10-22T01:53:02.716Z,1.98
2022-10-22T01:55:32.328Z,1.95
2022-10-22T01:58:06.476Z,2.80
2022-10-22T02:00:38.261Z,2.83
2022-10-22T02:03:09.073Z,2.53
2022-10-22T02:05:39.053Z,1.63
2022-10-22T02:08:09.884Z,2.70
2022-10-22T02:10:38.346Z,2.22
2022-10-22T02:13:09.222Z,2.35
2022-10-22T02:15:39.015Z,1.98
2022-10-22T02:18:07.872Z,2.53
2022-10-22T02:20:37.429Z,1.95
2022-10-22T02:23:05.497Z,2.00
2022-10-22T02:25:35.034Z,2.63
2022-10-22T02:28:05.390Z,1.77
2022-10-22T02:30:33.710Z,2.00
2022-10-22T02:33:04.002Z,2.03
2022-10-22T02:35:32.379Z,3.05
2022-10-22T02:38:00.940Z,2.78
2022-10-22T02:40:29.249Z,3.95
2022-10-22T02:42:56.927Z,2.72
2022-10-22T02:45:24.727Z,2.50
2022-10-22T02:47:52.836Z,3.10
2022-10-22T02:50:22.036Z,2.10
2022-10-22T02:52:49.719Z,1.90
2022-10-22T02:55:17.496Z,2.20
2022-10-22T02:57:45.135Z,2.55
2022-10-22T03:00:13.531Z,2.08
2022-10-22T03:02:41.110Z,2.35
2022-10-22T03:05:09.377Z,2.05
2022-10-22T03:07:38.832Z,2.10
2022-10-22T03:10:07.093Z,2.53
2022-10-22T03:12:34.745Z,1.60
2022-10-22T03:15:02.363Z,2.05
2022-10-22T03:17:30.051Z,2.30
2022-10-22T03:19:57.715Z,2.30
2022-10-22T03:22:27.747Z,1.73
2022-10-22T03:24:58.656Z,3.00
2022-10-22T03:27:27.320Z,2.10
2022-10-22T03:29:54.939Z,1.80
2022-10-22T03:32:22.580Z,1.70
2022-10-22T03:34:50.678Z,2.03
2022-10-22T03:37:18.439Z,1.40
2022-10-22T03:39:46.275Z,2.72
2022-10-22T03:42:16.295Z,1.92
2022-10-22T03:44:44.413Z,2.25
2022-10-22T03:47:12.145Z,1.77
2022-10-22T03:49:39.816Z,2.22
2022-10-22T03:52:07.974Z,1.80
2022-10-22T03:54:36.252Z,2.38
2022-10-22T03:57:03.923Z,2.25
2022-10-22T03:59:36.507Z,1.90
2022-10-22T04:02:04.436Z,1.88
2022-10-22T04:04:32.063Z,1.65
2022-10-22T04:06:59.864Z,1.80
2022-10-22T04:09:27.476Z,2.25
2022-10-22T04:11:55.177Z,1.55
2022-10-22T04:14:22.869Z,2.05
2022-10-22T04:16:51.828Z,1.40
2022-10-22T04:19:19.425Z,2.08
2022-10-22T04:21:47.041Z,2.05
2022-10-22T04:24:14.689Z,1.65
2022-10-22T04:26:42.861Z,2.10
2022-10-22T04:29:13.559Z,1.33
2022-10-22T04:31:43.733Z,1.60
2022-10-22T04:34:12.721Z,2.60
2022-10-22T04:36:40.313Z,1.95
2022-10-22T04:39:08.059Z,2.13
2022-10-22T04:41:36.366Z,1.88
2022-10-22T04:44:04.302Z,1.88
2022-10-22T04:46:33.568Z,1.45
2022-10-22T04:49:03.345Z,2.38
2022-10-22T04:51:32.650Z,2.22
2022-10-22T04:54:00.420Z,1.80
2022-10-22T04:56:29.182Z,3.17
2022-10-22T04:58:58.011Z,2.38
2022-10-22T05:01:26.867Z,2.03
2022-10-22T05:03:55.146Z,2.05
2022-10-22T05:06:22.994Z,1.95
2022-10-22T05:08:55.747Z,3.03
2022-10-22T05:11:24.791Z,1.55
2022-10-22T05:13:52.395Z,2.35
2022-10-22T05:16:20.150Z,2.25
2022-10-22T05:18:47.794Z,1.95
2022-10-22T05:21:16.299Z,2.03
2022-10-22T05:23:44.343Z,2.65
2022-10-22T05:26:14.007Z,2.03
2022-10-22T05:28:41.672Z,2.25
2022-10-22T05:31:10.293Z,1.50
2022-10-22T05:33:38.132Z,2.03
2022-10-22T05:36:06.562Z,2.30
2022-10-22T05:38:34.856Z,1.83
2022-10-22T05:41:02.665Z,1.70
2022-10-22T05:43:31.824Z,1.77
2022-10-22T05:46:03.068Z,1.70
2022-10-22T05:51:05.536Z,1.75
2022-10-22T05:53:33.340Z,1.80
2022-10-22T05:56:01.544Z,2.08
2022-10-22T05:58:29.287Z,1.92
2022-10-22T06:01:01.674Z,2.17
2022-10-22T06:03:29.901Z,2.80
2022-10-22T06:05:57.531Z,2.70
2022-10-22T06:08:25.182Z,1.80
2022-10-22T06:10:55.124Z,1.98
2022-10-22T06:13:22.986Z,1.75
2022-10-22T06:15:50.736Z,2.15
2022-10-22T06:18:20.020Z,1.85
2022-10-22T06:20:48.198Z,1.77
2022-10-22T06:23:16.092Z,1.77
2022-10-22T06:25:44.506Z,1.50
2022-10-22T06:28:12.195Z,3.20
2022-10-22T06:30:42.939Z,1.92
2022-10-22T06:33:13.476Z,1.60
2022-10-22T06:35:42.460Z,2.08
2022-10-22T06:38:10.115Z,1.80
2022-10-22T06:40:37.749Z,2.15
2022-10-22T06:43:06.097Z,1.40
2022-10-22T06:45:33.757Z,1.70
2022-10-22T06:48:01.722Z,1.90
2022-10-22T06:50:29.461Z,2.10
2022-10-22T06:52:58.736Z,1.52
2022-10-22T06:55:26.481Z,1.63
2022-10-22T06:57:54.046Z,1.75
2022-10-22T07:00:22.359Z,1.73
2022-10-22T07:02:56.367Z,1.80
2022-10-22T07:05:26.795Z,2.15
2022-10-22T07:07:54.444Z,2.25
2022-10-22T07:10:25.010Z,1.80
2022-10-22T07:12:56.006Z,2.50
2022-10-22T07:15:23.574Z,1.58
2022-10-22T07:17:51.733Z,2.20
2022-10-22T07:20:21.612Z,2.08
2022-10-22T07:22:49.241Z,1.85
2022-10-22T07:25:16.857Z,1.35
2022-10-22T07:27:45.796Z,1.77
2022-10-22T07:30:13.749Z,1.67
2022-10-22T07:32:41.507Z,1.60
2022-10-22T07:35:09.444Z,2.67
2022-10-22T07:37:37.101Z,2.55
2022-10-22T07:40:05.041Z,1.98
2022-10-22T07:42:32.608Z,1.73
2022-10-22T07:45:01.542Z,1.65
2022-10-22T07:47:29.519Z,1.33
2022-10-22T07:49:57.128Z,1.98
2022-10-22T07:52:24.759Z,2.03
2022-10-22T07:54:52.410Z,2.08
2022-10-22T07:57:20.033Z,1.30
2022-10-22T07:59:47.688Z,1.48
2022-10-22T08:02:16.650Z,1.30
2022-10-22T08:04:44.532Z,2.28
2022-10-22T08:07:12.150Z,3.58
2022-10-22T08:09:39.770Z,1.73
2022-10-22T08:12:10.284Z,1.77
2022-10-22T08:14:37.874Z,1.52
2022-10-22T08:17:05.585Z,2.22
2022-10-22T08:19:35.437Z,1.58
2022-10-22T08:22:03.133Z,1.25
2022-10-22T08:24:30.772Z,2.08
2022-10-22T08:26:58.657Z,1.33
2022-10-22T08:29:26.876Z,1.95
2022-10-22T08:31:55.130Z,1.77
2022-10-22T08:34:23.077Z,1.77
2022-10-22T08:36:52.037Z,1.90
2022-10-22T08:39:19.681Z,1.58
2022-10-22T08:41:52.073Z,1.67
2022-10-22T08:44:33.816Z,2.08
2022-10-22T08:47:17.454Z,1.67
2022-10-22T08:49:47.944Z,1.30
2022-10-22T08:52:18.138Z,1.60
2022-10-22T08:54:50.036Z,1.80
2022-10-22T08:57:23.904Z,3.05
2022-10-22T08:59:55.309Z,1.77
2022-10-22T09:02:28.816Z,1.70
2022-10-22T09:05:00.531Z,2.53
2022-10-22T09:07:29.631Z,1.60
2022-10-22T09:09:59.106Z,1.77
2022-10-22T09:12:28.096Z,2.28
2022-10-22T09:14:55.865Z,1.73
2022-10-22T09:17:33.928Z,1.90
2022-10-22T09:20:03.992Z,1.65
2022-10-22T09:22:36.761Z,2.42
2022-10-22T09:25:12.646Z,1.33
2022-10-22T09:27:40.714Z,1.63
2022-10-22T09:30:12.549Z,2.35
2022-10-22T09:32:40.335Z,1.60
2022-10-22T09:35:10.972Z,1.80
2022-10-22T09:37:48.042Z,2.28
2022-10-22T09:40:16.295Z,1.13
2022-10-22T09:42:44.723Z,2.03
2022-10-22T09:45:17.512Z,1.83
2022-10-22T09:48:01.026Z,2.28
2022-10-22T09:50:31.126Z,1.33
2022-10-22T09:53:01.715Z,1.63
2022-10-22T09:55:29.420Z,1.50
2022-10-22T09:57:57.766Z,2.15
2022-10-22T10:00:26.111Z,1.35
2022-10-22T10:02:58.239Z,1.55
2022-10-22T10:05:26.965Z,2.08
2022-10-22T10:07:54.610Z,2.25
2022-10-22T10:10:28.860Z,2.00
2022-10-22T10:12:57.853Z,1.80
2022-10-22T10:15:29.011Z,2.00
2022-10-22T10:18:01.780Z,1.73
2022-10-22T10:20:35.925Z,2.53
2022-10-22T10:23:08.550Z,2.15
2022-10-22T10:25:44.071Z,1.92
2022-10-22T10:28:22.414Z,1.70
2022-10-22T10:30:54.605Z,1.60
2022-10-22T10:33:29.230Z,1.20
2022-10-22T10:35:59.516Z,1.30
2022-10-22T10:38:33.734Z,1.67
2022-10-22T10:41:09.402Z,1.73
2022-10-22T10:43:40.258Z,2.05
2022-10-22T10:46:11.758Z,1.35
2022-10-22T10:48:46.421Z,1.67
2022-10-22T10:51:20.655Z,1.55
2022-10-22T10:53:54.889Z,3.00
2022-10-22T10:56:34.399Z,1.60
2022-10-22T10:59:11.490Z,1.38
2022-10-22T11:01:43.599Z,1.45
2022-10-22T11:04:22.734Z,1.38
2022-10-22T11:06:51.672Z,1.23
2022-10-22T11:09:23.218Z,1.50
2022-10-22T11:11:55.303Z,1.48
2022-10-22T11:14:27.850Z,1.38
2022-10-22T11:17:01.681Z,1.95
2022-10-22T11:19:50.247Z,1.67
2022-10-22T11:22:26.580Z,1.83
2022-10-22T11:24:56.868Z,1.70
2022-10-22T11:27:28.460Z,1.70
2022-10-22T11:29:58.756Z,1.63
2022-10-22T11:32:27.491Z,2.05
2022-10-22T11:34:56.136Z,2.28
2022-10-22T11:37:26.469Z,1.77
2022-10-22T11:39:55.539Z,1.60
2022-10-22T11:42:24.834Z,1.50
2022-10-22T11:45:03.414Z,1.65
2022-10-22T11:47:34.078Z,1.90
2022-10-22T11:50:12.581Z,1.30
2022-10-22T11:52:42.226Z,1.63
2022-10-22T11:55:24.730Z,1.58
2022-10-22T11:57:52.374Z,2.20
2022-10-22T12:00:35.669Z,2.10
2022-10-22T12:03:06.002Z,2.13
2022-10-22T12:05:35.447Z,2.10
2022-10-22T12:08:22.949Z,2.38
2022-10-22T12:10:58.859Z,2.40
2022-10-22T12:13:27.754Z,2.20
2022-10-22T12:15:58.954Z,1.70
2022-10-22T12:18:27.716Z,1.75
2022-10-22T12:20:55.473Z,2.15
2022-10-22T12:23:27.208Z,1.77
2022-10-22T12:25:54.887Z,2.13
2022-10-22T12:28:23.054Z,1.90
2022-10-22T12:30:50.880Z,1.52
2022-10-22T12:33:21.599Z,1.88
2022-10-22T12:35:53.125Z,2.20
2022-10-22T12:38:22.483Z,2.28
2022-10-22T12:40:51.325Z,2.10
2022-10-22T12:43:19.806Z,1.73
2022-10-22T12:45:48.562Z,1.50
2022-10-22T12:48:18.082Z,1.40
2022-10-22T12:50:48.360Z,1.38
2022-10-22T12:53:17.764Z,1.55
2022-10-22T12:55:47.184Z,2.25
2022-10-22T12:58:17.750Z,1.98
2022-10-22T13:00:46.468Z,1.20
2022-10-22T13:03:26.391Z,1.48
2022-10-22T13:05:55.466Z,1.52
2022-10-22T13:10:57.299Z,1.20
2022-10-22T13:13:34.955Z,1.80
2022-10-22T13:16:15.959Z,1.20
2022-10-22T13:18:44.798Z,1.10
2022-10-22T13:21:24.547Z,1.63
2022-10-22T13:23:56.301Z,1.67
2022-10-22T13:26:24.695Z,1.50
2022-10-22T13:28:53.647Z,1.63
2022-10-22T13:31:22.268Z,1.13
2022-10-22T13:33:53.434Z,1.30
2022-10-22T13:36:21.177Z,2.42
2022-10-22T13:38:50.290Z,1.85
2022-10-22T13:41:22.130Z,1.20
2022-10-22T13:43:50.643Z,1.63
2022-10-22T13:46:18.393Z,1.55
2022-10-22T13:48:46.212Z,1.40
2022-10-22T13:51:15.770Z,1.60
2022-10-22T13:53:45.956Z,1.27
2022-10-22T13:56:16.593Z,1.30
2022-10-22T13:58:44.628Z,1.10
2022-10-22T14:01:17.716Z,1.98
2022-10-22T14:03:45.451Z,1.42
2022-10-22T14:06:14.277Z,1.52
2022-10-22T14:08:42.617Z,1.15
2022-10-22T14:11:10.984Z,1.15
2022-10-22T14:13:40.402Z,1.27
2022-10-22T14:16:08.493Z,1.38
2022-10-22T14:18:36.740Z,1.35
2022-10-22T14:21:07.395Z,1.85
2022-10-22T14:23:35.967Z,1.60
2022-10-22T14:26:04.673Z,1.35
2022-10-22T14:28:40.994Z,1.35
2022-10-22T14:31:15.266Z,1.60
2022-10-22T14:33:43.088Z,1.23
2022-10-22T14:36:12.438Z,1.52
2022-10-22T14:38:40.074Z,0.88
2022-10-22T14:41:15.991Z,1.63
2022-10-22T14:43:43.657Z,1.73
2022-10-22T14:46:12.133Z,1.00
2022-10-22T14:48:41.291Z,2.90
2022-10-22T14:51:08.991Z,1.35
2022-10-22T14:53:36.619Z,1.48
2022-10-22T14:56:04.329Z,1.85
2022-10-22T14:58:31.991Z,1.23
2022-10-22T15:01:02.589Z,1.10
2022-10-22T15:03:31.261Z,1.42
2022-10-22T15:06:00.630Z,2.20
2022-10-22T15:08:28.382Z,1.05
2022-10-22T15:10:59.872Z,1.20
2022-10-22T15:13:27.857Z,1.65
2022-10-22T15:15:55.573Z,1.50
2022-10-22T15:18:24.350Z,1.25
2022-10-22T15:21:00.951Z,1.40
2022-10-22T15:23:28.697Z,1.60
2022-10-22T15:25:56.765Z,1.77
2022-10-22T15:28:24.695Z,1.70
2022-10-22T15:30:55.894Z,1.65
2022-10-22T15:33:23.574Z,1.80
2022-10-22T15:35:53.183Z,1.65
2022-10-22T15:38:22.642Z,1.50
2022-10-22T15:40:50.466Z,1.48
2022-10-22T15:43:18.099Z,1.35
2022-10-22T15:45:45.737Z,1.23
2022-10-22T15:48:15.445Z,1.55
2022-10-22T15:50:43.281Z,0.93
2022-10-22T15:53:11.334Z,1.35
2022-10-22T15:55:40.257Z,1.52
2022-10-22T15:58:07.821Z,1.05
2022-10-22T16:00:35.518Z,1.70
2022-10-22T16:03:03.223Z,1.63
2022-10-22T16:05:31.314Z,1.70
2022-10-22T16:07:59.022Z,1.40
2022-10-22T16:10:28.112Z,1.40
2022-10-22T16:12:58.601Z,1.23
2022-10-22T16:15:26.355Z,1.63
2022-10-22T16:17:54.053Z,1.27
2022-10-22T16:20:21.658Z,1.88
2022-10-22T16:22:50.600Z,1.98
2022-10-22T16:25:18.234Z,2.00
2022-10-22T16:27:46.063Z,1.33
2022-10-22T16:30:15.352Z,1.73
2022-10-22T16:32:43.227Z,1.25
2022-10-22T16:35:11.081Z,1.60
2022-10-22T16:37:39.090Z,2.45
2022-10-22T16:40:08.470Z,3.85
2022-10-22T16:42:36.469Z,9.93
2022-10-22T16:45:04.377Z,3.17
2022-10-22T16:47:33.403Z,2.45
2022-10-22T16:50:01.192Z,2.83
2022-10-22T16:52:29.019Z,1.60
2022-10-22T16:54:58.113Z,1.92
2022-10-22T16:57:25.932Z,2.78
2022-10-22T16:59:53.912Z,2.08
2022-10-22T17:02:21.622Z,2.88
2022-10-22T17:04:50.663Z,3.20
2022-10-22T17:07:18.354Z,3.28
2022-10-22T17:09:45.981Z,2.40
2022-10-22T17:12:13.582Z,3.13
2022-10-22T17:14:41.180Z,2.65
2022-10-22T17:17:08.809Z,2.88
2022-10-22T17:19:38.789Z,3.00
2022-10-22T17:22:07.924Z,3.28
2022-10-22T17:24:35.653Z,2.67
2022-10-22T17:29:36.811Z,12.13
2022-10-22T17:32:04.483Z,8.27
2022-10-22T17:34:33.299Z,3.13
2022-10-22T17:37:01.082Z,3.90
2022-10-22T17:39:30.077Z,3.72
2022-10-22T17:41:57.673Z,2.53
2022-10-22T17:44:25.301Z,4.13
2022-10-22T17:46:53.485Z,26.13
2022-10-22T17:49:21.445Z,33.03
2022-10-22T17:51:49.103Z,31.05
2022-10-22T17:54:16.790Z,41.25
2022-10-22T17:56:45.820Z,39.17
2022-10-22T17:59:14.452Z,38.95
2022-10-22T18:01:45.594Z,62.33
2022-10-22T18:04:15.359Z,19.63
2022-10-22T18:06:43.031Z,6.90
2022-10-22T18:09:13.240Z,5.97
2022-10-22T18:11:44.154Z,4.72
2022-10-22T18:14:13.097Z,4.47
2022-10-22T18:16:40.742Z,5.32
2022-10-22T18:19:08.337Z,5.25
2022-10-22T18:21:36.975Z,5.20
2022-10-22T18:24:04.683Z,4.80
2022-10-22T18:26:32.370Z,4.97
2022-10-22T18:29:00.215Z,3.40
2022-10-22T18:31:30.366Z,4.30
2022-10-22T18:33:58.254Z,4.78
2022-10-22T18:36:26.792Z,4.72
2022-10-22T18:38:57.743Z,4.95
2022-10-22T18:41:25.745Z,4.38
2022-10-22T18:43:53.921Z,4.40
2022-10-22T18:46:22.184Z,4.60
2022-10-22T18:48:51.303Z,3.95
2022-10-22T18:51:18.937Z,3.83
2022-10-22T18:53:59.024Z,5.07
2022-10-22T18:56:33.434Z,6.07
2022-10-22T18:59:01.165Z,4.90
2022-10-22T19:01:30.543Z,5.60
2022-10-22T19:03:59.546Z,4.60
2022-10-22T19:06:31.993Z,5.28
2022-10-22T19:09:01.223Z,4.82
2022-10-22T19:11:28.884Z,5.15
2022-10-22T19:13:56.590Z,5.00
2022-10-22T19:16:24.578Z,5.22
2022-10-22T19:18:53.013Z,6.57
2022-10-22T19:21:22.873Z,6.05
2022-10-22T19:23:51.637Z,5.75
2022-10-22T19:26:21.439Z,5.30
2022-10-22T19:28:49.153Z,6.45
2022-10-22T19:31:18.889Z,5.18
2022-10-22T19:33:47.714Z,5.72
2022-10-22T19:36:16.131Z,5.53
2022-10-22T19:38:46.053Z,5.93
2022-10-22T19:41:14.985Z,6.13
2022-10-22T19:43:42.939Z,6.13
2022-10-22T19:46:10.918Z,5.35
2022-10-22T19:48:38.833Z,5.32
2022-10-22T19:51:08.499Z,4.85
2022-10-22T19:53:37.503Z,6.18
2022-10-22T19:56:08.705Z,5.40
2022-10-22T19:58:36.423Z,6.05
2022-10-22T20:01:04.780Z,7.47
2022-10-22T20:03:32.670Z,6.30
2022-10-22T20:06:00.278Z,6.78
2022-10-22T20:08:27.854Z,6.32
2022-10-22T20:10:55.449Z,6.90
2022-10-22T20:13:24.649Z,5.85
2022-10-22T20:15:52.673Z,6.28
2022-10-22T20:18:22.408Z,6.72
2022-10-22T20:20:50.186Z,6.55
2022-10-22T20:23:18.306Z,5.72
2022-10-22T20:25:46.935Z,6.00
2022-10-22T20:28:15.547Z,6.47
2022-10-22T20:30:44.912Z,5.22
2022-10-22T20:33:12.830Z,5.38
2022-10-22T20:35:40.568Z,5.47
2022-10-22T20:38:08.703Z,5.82
2022-10-22T20:40:37.322Z,5.47
2022-10-22T20:43:05.032Z,5.95
2022-10-22T20:45:32.590Z,5.35
2022-10-22T20:48:02.996Z,4.80
2022-10-22T20:50:32.330Z,6.07
2022-10-22T20:53:00.160Z,6.88
2022-10-22T20:55:28.080Z,5.97
2022-10-22T20:57:56.293Z,6.65
2022-10-22T21:00:23.922Z,5.93
2022-10-22T21:02:51.516Z,6.68
2022-10-22T21:05:20.568Z,6.35
2022-10-22T21:07:48.371Z,6.50
2022-10-22T21:10:16.023Z,5.82
2022-10-22T21:12:45.455Z,6.15
2022-10-22T21:15:13.859Z,5.47
2022-10-22T21:17:41.485Z,6.18
2022-10-22T21:22:43.518Z,5.97
2022-10-22T21:25:11.286Z,6.30
2022-10-22T21:27:38.948Z,6.68
2022-10-22T21:30:06.928Z,7.10
2022-10-22T21:32:34.704Z,6.95
2022-10-22T21:35:02.324Z,6.25
2022-10-22T21:37:30.990Z,9.25
2022-10-22T21:40:00.705Z,6.22
2022-10-22T21:42:28.316Z,6.15
2022-10-22T21:44:56.062Z,5.50
2022-10-22T21:47:23.899Z,6.68
2022-10-22T21:49:51.539Z,5.50
2022-10-22T21:52:19.373Z,5.85
2022-10-22T21:54:46.953Z,6.43
2022-10-22T21:57:15.969Z,5.18
2022-10-22T21:59:43.595Z,6.68
2022-10-22T22:02:11.436Z,5.63
2022-10-22T22:04:39.133Z,6.18
2022-10-22T22:07:06.727Z,5.97
2022-10-22T22:09:34.688Z,5.53
2022-10-22T22:12:02.463Z,6.50
2022-10-22T22:14:32.707Z,5.78
2022-10-22T22:17:00.312Z,4.90
2022-10-22T22:19:28.055Z,5.30
2022-10-22T22:21:55.698Z,6.15
2022-10-22T22:24:23.296Z,5.55
2022-10-22T22:26:51.007Z,5.65
2022-10-22T22:29:18.725Z,6.95
2022-10-22T22:31:47.693Z,5.72
2022-10-22T22:34:16.275Z,8.95
2022-10-22T22:36:45.462Z,5.65
2022-10-22T22:39:13.702Z,6.03
2022-10-22T22:41:41.373Z,4.85
2022-10-22T22:44:09.041Z,6.05
2022-10-22T22:46:36.943Z,5.60
2022-10-22T22:49:06.069Z,5.82
2022-10-22T22:51:34.099Z,5.20
2022-10-22T22:54:01.974Z,5.80
2022-10-22T22:56:30.509Z,6.32
2022-10-22T22:58:58.380Z,4.93
2022-10-22T23:01:27.237Z,6.00
2022-10-22T23:03:56.672Z,5.15
2022-10-22T23:06:26.360Z,5.63
2022-10-22T23:08:54.624Z,5.43
2022-10-22T23:11:22.981Z,6.07
2022-10-22T23:13:53.380Z,6.45
2022-10-22T23:16:21.937Z,6.38
2022-10-22T23:18:50.122Z,5.70
2022-10-22T23:21:18.973Z,6.93
2022-10-22T23:23:49.324Z,6.20
2022-10-22T23:26:18.202Z,5.95
2022-10-22T23:28:46.123Z,5.93
2022-10-22T23:31:14.917Z,6.30
2022-10-22T23:33:42.665Z,6.20
2022-10-22T23:36:10.824Z,7.45
2022-10-22T23:38:39.860Z,6.30
2022-10-22T23:41:09.261Z,5.80
2022-10-22T23:43:37.694Z,6.10
2022-10-22T23:46:05.540Z,5.82
2022-10-22T23:48:33.360Z,6.60
2022-10-22T23:51:04.535Z,6.97
2022-10-22T23:53:32.169Z,7.18
2022-10-22T23:56:03.802Z,7.25
2022-10-22T23:58:32.818Z,7.30
